sensor_id;sensor_type;location;lat;lon;timestamp;P1;durP1;ratioP1;P2;durP2;ratioP2
15006;SDS011;7599;50.748;13.142;2024-01-10T00:05:30;1.40;;;0.82;;
15006;SDS011;7599;50.748;13.142;2024-01-10T00:08:33;1.42;;;0.88;;
15006;SDS011;7599;50.748;13.142;2024-01-10T00:11:37;1.10;;;0.90;;
15006;SDS011;7599;50.748;13.142;2024-01-10T00:14:39;1.38;;;1.00;;
15006;SDS011;7599;50.748;13.142;2024-01-10T00:17:42;1.98;;;0.90;;
15006;SDS011;7599;50.748;13.142;2024-01-10T00:20:44;1.20;;;0.93;;
15006;SDS011;7599;50.748;13.142;2024-01-10T00:26:51;1.27;;;0.80;;
15006;SDS011;7599;50.748;13.142;2024-01-10T00:29:54;1.75;;;1.00;;
15006;SDS011;7599;50.748;13.142;2024-01-10T00:32:58;1.20;;;0.90;;
15006;SDS011;7599;50.748;13.142;2024-01-10T00:36:00;1.42;;;0.95;;
15006;SDS011;7599;50.748;13.142;2024-01-10T00:39:03;1.08;;;0.88;;
15006;SDS011;7599;50.748;13.142;2024-01-10T00:45:09;1.52;;;0.93;;
15006;SDS011;7599;50.748;13.142;2024-01-10T00:48:12;1.67;;;1.00;;
15006;SDS011;7599;50.748;13.142;2024-01-10T00:51:14;1.30;;;0.80;;
15006;SDS011;7599;50.748;13.142;2024-01-10T00:54:17;1.48;;;0.90;;
15006;SDS011;7599;50.748;13.142;2024-01-10T00:57:21;1.95;;;0.90;;
15006;SDS011;7599;50.748;13.142;2024-01-10T01:00:24;1.23;;;0.82;;
15006;SDS011;7599;50.748;13.142;2024-01-10T01:03:28;1.55;;;1.10;;
15006;SDS011;7599;50.748;13.142;2024-01-10T01:06:30;1.17;;;0.80;;
15006;SDS011;7599;50.748;13.142;2024-01-10T01:09:33;1.67;;;0.95;;
15006;SDS011;7599;50.748;13.142;2024-01-10T01:12:37;2.08;;;0.90;;
15006;SDS011;7599;50.748;13.142;2024-01-10T01:15:40;1.42;;;0.80;;
15006;SDS011;7599;50.748;13.142;2024-01-10T01:18:43;2.22;;;1.05;;
15006;SDS011;7599;50.748;13.142;2024-01-10T01:21:46;1.55;;;1.00;;
15006;SDS011;7599;50.748;13.142;2024-01-10T01:30:55;2.00;;;1.20;;
15006;SDS011;7599;50.748;13.142;2024-01-10T01:33:58;2.17;;;0.90;;
15006;SDS011;7599;50.748;13.142;2024-01-10T01:37:01;2.13;;;0.98;;
15006;SDS011;7599;50.748;13.142;2024-01-10T01:40:04;1.00;;;0.60;;
15006;SDS011;7599;50.748;13.142;2024-01-10T01:43:21;1.08;;;0.80;;
15006;SDS011;7599;50.748;13.142;2024-01-10T01:46:25;1.40;;;0.82;;
15006;SDS011;7599;50.748;13.142;2024-01-10T01:49:29;1.42;;;0.75;;
15006;SDS011;7599;50.748;13.142;2024-01-10T01:52:32;1.42;;;0.98;;
15006;SDS011;7599;50.748;13.142;2024-01-10T01:55:35;1.65;;;0.93;;
15006;SDS011;7599;50.748;13.142;2024-01-10T01:58:40;1.40;;;0.88;;
15006;SDS011;7599;50.748;13.142;2024-01-10T02:01:43;0.90;;;0.80;;
15006;SDS011;7599;50.748;13.142;2024-01-10T02:04:46;5.10;;;1.13;;
15006;SDS011;7599;50.748;13.142;2024-01-10T02:07:49;1.80;;;1.00;;
15006;SDS011;7599;50.748;13.142;2024-01-10T02:10:51;1.40;;;0.80;;
15006;SDS011;7599;50.748;13.142;2024-01-10T02:13:57;1.23;;;1.00;;
15006;SDS011;7599;50.748;13.142;2024-01-10T02:17:00;1.67;;;0.88;;
15006;SDS011;7599;50.748;13.142;2024-01-10T02:20:09;1.90;;;0.93;;
15006;SDS011;7599;50.748;13.142;2024-01-10T02:23:11;1.63;;;0.90;;
15006;SDS011;7599;50.748;13.142;2024-01-10T02:26:16;1.50;;;0.73;;
15006;SDS011;7599;50.748;13.142;2024-01-10T02:29:19;1.45;;;1.00;;
15006;SDS011;7599;50.748;13.142;2024-01-10T02:32:21;1.38;;;0.98;;
15006;SDS011;7599;50.748;13.142;2024-01-10T02:35:25;1.50;;;0.90;;
15006;SDS011;7599;50.748;13.142;2024-01-10T02:38:28;1.23;;;0.80;;
15006;SDS011;7599;50.748;13.142;2024-01-10T02:41:32;1.45;;;0.85;;
15006;SDS011;7599;50.748;13.142;2024-01-10T02:44:34;1.60;;;0.90;;
15006;SDS011;7599;50.748;13.142;2024-01-10T02:47:37;1.67;;;0.82;;
15006;SDS011;7599;50.748;13.142;2024-01-10T02:50:41;1.38;;;0.95;;
15006;SDS011;7599;50.748;13.142;2024-01-10T02:53:44;1.73;;;1.10;;
15006;SDS011;7599;50.748;13.142;2024-01-10T02:59:50;1.10;;;0.73;;
15006;SDS011;7599;50.748;13.142;2024-01-10T03:02:53;1.50;;;0.90;;
15006;SDS011;7599;50.748;13.142;2024-01-10T03:05:55;2.17;;;1.05;;
15006;SDS011;7599;50.748;13.142;2024-01-10T03:08:58;1.88;;;0.90;;
15006;SDS011;7599;50.748;13.142;2024-01-10T03:12:02;1.63;;;0.93;;
15006;SDS011;7599;50.748;13.142;2024-01-10T03:15:05;1.30;;;1.00;;
15006;SDS011;7599;50.748;13.142;2024-01-10T03:18:08;1.17;;;0.90;;
15006;SDS011;7599;50.748;13.142;2024-01-10T03:21:10;1.70;;;0.70;;
15006;SDS011;7599;50.748;13.142;2024-01-10T03:27:17;0.95;;;0.77;;
15006;SDS011;7599;50.748;13.142;2024-01-10T03:30:19;1.10;;;0.80;;
15006;SDS011;7599;50.748;13.142;2024-01-10T03:33:25;1.50;;;0.98;;
15006;SDS011;7599;50.748;13.142;2024-01-10T03:36:28;1.52;;;0.73;;
15006;SDS011;7599;50.748;13.142;2024-01-10T03:39:30;1.10;;;0.90;;
15006;SDS011;7599;50.748;13.142;2024-01-10T03:42:34;1.70;;;0.90;;
15006;SDS011;7599;50.748;13.142;2024-01-10T03:45:37;1.30;;;0.80;;
15006;SDS011;7599;50.748;13.142;2024-01-10T03:51:49;1.65;;;0.85;;
15006;SDS011;7599;50.748;13.142;2024-01-10T03:54:52;1.38;;;0.82;;
15006;SDS011;7599;50.748;13.142;2024-01-10T04:00:58;1.67;;;0.90;;
15006;SDS011;7599;50.748;13.142;2024-01-10T04:07:03;1.10;;;0.70;;
15006;SDS011;7599;50.748;13.142;2024-01-10T04:10:06;1.35;;;1.00;;
15006;SDS011;7599;50.748;13.142;2024-01-10T04:13:13;1.55;;;1.00;;
15006;SDS011;7599;50.748;13.142;2024-01-10T04:16:15;0.77;;;0.68;;
15006;SDS011;7599;50.748;13.142;2024-01-10T04:22:20;1.13;;;0.80;;
15006;SDS011;7599;50.748;13.142;2024-01-10T04:28:27;1.35;;;0.80;;
15006;SDS011;7599;50.748;13.142;2024-01-10T04:31:29;1.23;;;0.80;;
15006;SDS011;7599;50.748;13.142;2024-01-10T04:37:34;2.22;;;0.70;;
15006;SDS011;7599;50.748;13.142;2024-01-10T04:40:37;1.48;;;0.80;;
15006;SDS011;7599;50.748;13.142;2024-01-10T04:43:41;1.13;;;0.80;;
15006;SDS011;7599;50.748;13.142;2024-01-10T04:46:43;1.38;;;0.90;;
15006;SDS011;7599;50.748;13.142;2024-01-10T04:49:46;1.15;;;0.70;;
15006;SDS011;7599;50.748;13.142;2024-01-10T04:55:51;2.00;;;0.80;;
15006;SDS011;7599;50.748;13.142;2024-01-10T04:58:55;1.02;;;0.82;;
15006;SDS011;7599;50.748;13.142;2024-01-10T05:01:57;1.40;;;0.80;;
15006;SDS011;7599;50.748;13.142;2024-01-10T05:05:00;0.98;;;0.47;;
15006;SDS011;7599;50.748;13.142;2024-01-10T05:08:03;1.38;;;0.75;;
15006;SDS011;7599;50.748;13.142;2024-01-10T05:11:06;0.70;;;0.45;;
15006;SDS011;7599;50.748;13.142;2024-01-10T05:14:10;1.13;;;0.50;;
15006;SDS011;7599;50.748;13.142;2024-01-10T05:17:13;1.05;;;0.65;;
15006;SDS011;7599;50.748;13.142;2024-01-10T05:20:15;1.77;;;0.90;;
15006;SDS011;7599;50.748;13.142;2024-01-10T05:26:21;1.33;;;0.70;;
15006;SDS011;7599;50.748;13.142;2024-01-10T05:32:27;1.08;;;0.65;;
15006;SDS011;7599;50.748;13.142;2024-01-10T05:35:30;1.13;;;0.70;;
15006;SDS011;7599;50.748;13.142;2024-01-10T05:41:35;1.02;;;0.60;;
15006;SDS011;7599;50.748;13.142;2024-01-10T05:44:42;0.80;;;0.70;;
15006;SDS011;7599;50.748;13.142;2024-01-10T05:47:44;1.10;;;0.50;;
15006;SDS011;7599;50.748;13.142;2024-01-10T05:50:49;1.00;;;0.68;;
15006;SDS011;7599;50.748;13.142;2024-01-10T05:53:52;0.80;;;0.60;;
15006;SDS011;7599;50.748;13.142;2024-01-10T05:56:54;1.15;;;0.80;;
15006;SDS011;7599;50.748;13.142;2024-01-10T06:03:01;0.68;;;0.55;;
15006;SDS011;7599;50.748;13.142;2024-01-10T06:06:04;1.15;;;0.80;;
15006;SDS011;7599;50.748;13.142;2024-01-10T06:12:12;1.88;;;0.98;;
15006;SDS011;7599;50.748;13.142;2024-01-10T06:15:16;1.08;;;0.57;;
15006;SDS011;7599;50.748;13.142;2024-01-10T06:18:18;1.13;;;0.60;;
15006;SDS011;7599;50.748;13.142;2024-01-10T06:21:21;1.05;;;0.60;;
15006;SDS011;7599;50.748;13.142;2024-01-10T06:27:26;1.23;;;0.65;;
15006;SDS011;7599;50.748;13.142;2024-01-10T06:30:30;1.23;;;0.70;;
15006;SDS011;7599;50.748;13.142;2024-01-10T06:33:33;0.90;;;0.60;;
15006;SDS011;7599;50.748;13.142;2024-01-10T06:39:38;1.65;;;0.80;;
15006;SDS011;7599;50.748;13.142;2024-01-10T06:42:41;0.85;;;0.80;;
15006;SDS011;7599;50.748;13.142;2024-01-10T06:48:49;0.82;;;0.70;;
15006;SDS011;7599;50.748;13.142;2024-01-10T06:51:52;1.13;;;0.80;;
15006;SDS011;7599;50.748;13.142;2024-01-10T06:54:54;0.82;;;0.65;;
15006;SDS011;7599;50.748;13.142;2024-01-10T06:57:58;1.75;;;0.70;;
15006;SDS011;7599;50.748;13.142;2024-01-10T07:01:02;1.42;;;0.90;;
15006;SDS011;7599;50.748;13.142;2024-01-10T07:04:06;0.90;;;0.50;;
15006;SDS011;7599;50.748;13.142;2024-01-10T07:07:08;1.40;;;0.80;;
15006;SDS011;7599;50.748;13.142;2024-01-10T07:10:12;0.93;;;0.63;;
15006;SDS011;7599;50.748;13.142;2024-01-10T07:13:15;1.40;;;0.82;;
15006;SDS011;7599;50.748;13.142;2024-01-10T07:19:21;1.10;;;0.60;;
15006;SDS011;7599;50.748;13.142;2024-01-10T07:22:25;1.73;;;0.70;;
15006;SDS011;7599;50.748;13.142;2024-01-10T07:25:28;0.75;;;0.68;;
15006;SDS011;7599;50.748;13.142;2024-01-10T07:28:31;1.30;;;0.80;;
15006;SDS011;7599;50.748;13.142;2024-01-10T07:31:35;1.88;;;0.60;;
15006;SDS011;7599;50.748;13.142;2024-01-10T07:34:38;1.73;;;0.73;;
15006;SDS011;7599;50.748;13.142;2024-01-10T07:37:42;0.98;;;0.63;;
15006;SDS011;7599;50.748;13.142;2024-01-10T07:40:45;0.98;;;0.70;;
15006;SDS011;7599;50.748;13.142;2024-01-10T07:43:47;1.67;;;0.80;;
15006;SDS011;7599;50.748;13.142;2024-01-10T07:46:52;0.75;;;0.70;;
15006;SDS011;7599;50.748;13.142;2024-01-10T07:49:56;1.00;;;0.70;;
15006;SDS011;7599;50.748;13.142;2024-01-10T07:52:58;0.90;;;0.70;;
15006;SDS011;7599;50.748;13.142;2024-01-10T07:56:02;1.33;;;1.00;;
15006;SDS011;7599;50.748;13.142;2024-01-10T07:59:05;0.93;;;0.75;;
15006;SDS011;7599;50.748;13.142;2024-01-10T08:02:09;1.88;;;0.95;;
15006;SDS011;7599;50.748;13.142;2024-01-10T08:05:13;1.85;;;1.30;;
15006;SDS011;7599;50.748;13.142;2024-01-10T08:08:15;2.58;;;1.40;;
15006;SDS011;7599;50.748;13.142;2024-01-10T08:14:20;1.52;;;1.00;;
15006;SDS011;7599;50.748;13.142;2024-01-10T08:17:24;2.63;;;1.00;;
15006;SDS011;7599;50.748;13.142;2024-01-10T08:20:27;3.20;;;1.17;;
15006;SDS011;7599;50.748;13.142;2024-01-10T08:23:30;2.22;;;1.00;;
15006;SDS011;7599;50.748;13.142;2024-01-10T08:26:32;1.98;;;1.00;;
15006;SDS011;7599;50.748;13.142;2024-01-10T08:32:39;2.15;;;1.13;;
15006;SDS011;7599;50.748;13.142;2024-01-10T08:35:42;3.15;;;1.10;;
15006;SDS011;7599;50.748;13.142;2024-01-10T08:38:45;1.55;;;1.05;;
15006;SDS011;7599;50.748;13.142;2024-01-10T08:41:47;1.85;;;1.10;;
15006;SDS011;7599;50.748;13.142;2024-01-10T08:44:51;1.77;;;1.15;;
15006;SDS011;7599;50.748;13.142;2024-01-10T08:47:55;1.35;;;1.08;;
15006;SDS011;7599;50.748;13.142;2024-01-10T08:50:59;3.30;;;1.17;;
15006;SDS011;7599;50.748;13.142;2024-01-10T08:54:02;1.55;;;0.93;;
15006;SDS011;7599;50.748;13.142;2024-01-10T08:57:06;1.48;;;1.30;;
15006;SDS011;7599;50.748;13.142;2024-01-10T09:00:09;2.00;;;1.27;;
15006;SDS011;7599;50.748;13.142;2024-01-10T09:03:15;1.70;;;1.27;;
15006;SDS011;7599;50.748;13.142;2024-01-10T09:06:17;1.60;;;1.10;;
15006;SDS011;7599;50.748;13.142;2024-01-10T09:09:21;1.67;;;1.23;;
15006;SDS011;7599;50.748;13.142;2024-01-10T09:12:24;1.75;;;1.38;;
15006;SDS011;7599;50.748;13.142;2024-01-10T09:15:32;1.70;;;1.55;;
15006;SDS011;7599;50.748;13.142;2024-01-10T09:18:36;2.05;;;1.27;;
15006;SDS011;7599;50.748;13.142;2024-01-10T09:21:40;7.28;;;1.63;;
15006;SDS011;7599;50.748;13.142;2024-01-10T09:24:42;3.72;;;1.80;;
15006;SDS011;7599;50.748;13.142;2024-01-10T09:27:46;4.15;;;1.70;;
15006;SDS011;7599;50.748;13.142;2024-01-10T09:30:48;2.20;;;1.77;;
15006;SDS011;7599;50.748;13.142;2024-01-10T09:33:54;2.75;;;1.63;;
15006;SDS011;7599;50.748;13.142;2024-01-10T09:36:57;2.72;;;1.77;;
15006;SDS011;7599;50.748;13.142;2024-01-10T09:40:00;4.03;;;1.85;;
15006;SDS011;7599;50.748;13.142;2024-01-10T09:43:02;4.30;;;1.23;;
15006;SDS011;7599;50.748;13.142;2024-01-10T09:46:08;2.30;;;1.55;;
15006;SDS011;7599;50.748;13.142;2024-01-10T09:49:14;3.03;;;1.73;;
15006;SDS011;7599;50.748;13.142;2024-01-10T09:52:20;2.20;;;1.02;;
15006;SDS011;7599;50.748;13.142;2024-01-10T09:55:26;2.58;;;1.40;;
15006;SDS011;7599;50.748;13.142;2024-01-10T09:58:35;2.78;;;1.30;;
15006;SDS011;7599;50.748;13.142;2024-01-10T10:01:41;1.20;;;1.10;;
15006;SDS011;7599;50.748;13.142;2024-01-10T10:04:51;1.92;;;1.20;;
15006;SDS011;7599;50.748;13.142;2024-01-10T10:07:59;3.45;;;1.15;;
15006;SDS011;7599;50.748;13.142;2024-01-10T10:11:02;1.88;;;0.90;;
15006;SDS011;7599;50.748;13.142;2024-01-10T10:14:13;2.15;;;1.00;;
15006;SDS011;7599;50.748;13.142;2024-01-10T10:17:17;1.85;;;1.08;;
15006;SDS011;7599;50.748;13.142;2024-01-10T10:20:22;2.08;;;1.13;;
15006;SDS011;7599;50.748;13.142;2024-01-10T10:23:25;1.40;;;1.10;;
15006;SDS011;7599;50.748;13.142;2024-01-10T10:26:28;1.42;;;1.05;;
15006;SDS011;7599;50.748;13.142;2024-01-10T10:29:31;1.08;;;0.90;;
15006;SDS011;7599;50.748;13.142;2024-01-10T10:32:34;1.15;;;0.80;;
15006;SDS011;7599;50.748;13.142;2024-01-10T10:35:38;2.45;;;1.25;;
15006;SDS011;7599;50.748;13.142;2024-01-10T10:38:46;1.63;;;1.00;;
15006;SDS011;7599;50.748;13.142;2024-01-10T10:41:49;1.45;;;1.10;;
15006;SDS011;7599;50.748;13.142;2024-01-10T10:44:54;1.40;;;0.93;;
15006;SDS011;7599;50.748;13.142;2024-01-10T10:48:03;2.25;;;1.00;;
15006;SDS011;7599;50.748;13.142;2024-01-10T10:51:13;2.33;;;1.00;;
15006;SDS011;7599;50.748;13.142;2024-01-10T10:54:19;2.03;;;0.98;;
15006;SDS011;7599;50.748;13.142;2024-01-10T10:57:24;1.45;;;1.10;;
15006;SDS011;7599;50.748;13.142;2024-01-10T11:00:28;1.48;;;1.00;;
15006;SDS011;7599;50.748;13.142;2024-01-10T11:03:31;1.60;;;1.00;;
15006;SDS011;7599;50.748;13.142;2024-01-10T11:06:38;2.05;;;1.20;;
15006;SDS011;7599;50.748;13.142;2024-01-10T11:09:42;1.63;;;1.08;;
15006;SDS011;7599;50.748;13.142;2024-01-10T11:13:00;1.52;;;1.13;;
15006;SDS011;7599;50.748;13.142;2024-01-10T11:16:29;1.52;;;0.80;;
15006;SDS011;7599;50.748;13.142;2024-01-10T11:20:05;1.23;;;0.85;;
15006;SDS011;7599;50.748;13.142;2024-01-10T11:23:22;1.65;;;1.30;;
15006;SDS011;7599;50.748;13.142;2024-01-10T11:26:38;1.55;;;0.93;;
15006;SDS011;7599;50.748;13.142;2024-01-10T11:29:41;1.48;;;0.90;;
15006;SDS011;7599;50.748;13.142;2024-01-10T11:32:44;1.20;;;0.90;;
15006;SDS011;7599;50.748;13.142;2024-01-10T11:36:05;2.25;;;0.95;;
15006;SDS011;7599;50.748;13.142;2024-01-10T11:39:14;1.20;;;0.90;;
15006;SDS011;7599;50.748;13.142;2024-01-10T11:42:21;1.80;;;0.85;;
15006;SDS011;7599;50.748;13.142;2024-01-10T11:45:35;2.28;;;0.90;;
15006;SDS011;7599;50.748;13.142;2024-01-10T11:48:38;1.73;;;1.08;;
15006;SDS011;7599;50.748;13.142;2024-01-10T11:51:43;0.98;;;0.63;;
15006;SDS011;7599;50.748;13.142;2024-01-10T11:54:49;1.48;;;0.80;;
15006;SDS011;7599;50.748;13.142;2024-01-10T11:58:03;0.90;;;0.70;;
15006;SDS011;7599;50.748;13.142;2024-01-10T12:01:10;1.27;;;0.90;;
15006;SDS011;7599;50.748;13.142;2024-01-10T12:04:13;2.22;;;0.90;;
15006;SDS011;7599;50.748;13.142;2024-01-10T12:07:27;1.38;;;0.60;;
15006;SDS011;7599;50.748;13.142;2024-01-10T12:10:31;1.33;;;0.85;;
15006;SDS011;7599;50.748;13.142;2024-01-10T12:13:37;1.45;;;0.70;;
15006;SDS011;7599;50.748;13.142;2024-01-10T12:16:40;1.25;;;0.60;;
15006;SDS011;7599;50.748;13.142;2024-01-10T12:19:45;1.50;;;0.77;;
15006;SDS011;7599;50.748;13.142;2024-01-10T12:22:50;1.35;;;0.60;;
15006;SDS011;7599;50.748;13.142;2024-01-10T12:25:54;11.07;;;0.90;;
15006;SDS011;7599;50.748;13.142;2024-01-10T12:28:59;3.35;;;0.80;;
15006;SDS011;7599;50.748;13.142;2024-01-10T12:32:02;1.17;;;1.08;;
15006;SDS011;7599;50.748;13.142;2024-01-10T12:35:06;1.00;;;0.90;;
15006;SDS011;7599;50.748;13.142;2024-01-10T12:38:24;2.80;;;0.85;;
15006;SDS011;7599;50.748;13.142;2024-01-10T12:41:32;1.05;;;0.77;;
15006;SDS011;7599;50.748;13.142;2024-01-10T12:44:40;1.52;;;0.80;;
15006;SDS011;7599;50.748;13.142;2024-01-10T12:47:52;1.60;;;0.98;;
15006;SDS011;7599;50.748;13.142;2024-01-10T12:50:56;1.08;;;0.88;;
15006;SDS011;7599;50.748;13.142;2024-01-10T12:54:02;3.95;;;0.88;;
15006;SDS011;7599;50.748;13.142;2024-01-10T12:57:06;1.50;;;0.80;;
15006;SDS011;7599;50.748;13.142;2024-01-10T13:00:15;7.35;;;1.13;;
15006;SDS011;7599;50.748;13.142;2024-01-10T13:03:20;3.53;;;1.00;;
15006;SDS011;7599;50.748;13.142;2024-01-10T13:06:38;5.03;;;1.08;;
15006;SDS011;7599;50.748;13.142;2024-01-10T13:13:45;6.55;;;1.08;;
15006;SDS011;7599;50.748;13.142;2024-01-10T13:16:48;8.57;;;1.42;;
15006;SDS011;7599;50.748;13.142;2024-01-10T13:20:00;3.22;;;1.30;;
15006;SDS011;7599;50.748;13.142;2024-01-10T13:23:05;5.82;;;1.33;;
15006;SDS011;7599;50.748;13.142;2024-01-10T13:26:09;4.30;;;1.20;;
15006;SDS011;7599;50.748;13.142;2024-01-10T13:29:14;8.40;;;1.15;;
15006;SDS011;7599;50.748;13.142;2024-01-10T13:32:17;2.25;;;1.10;;
15006;SDS011;7599;50.748;13.142;2024-01-10T13:35:19;3.22;;;1.00;;
15006;SDS011;7599;50.748;13.142;2024-01-10T13:38:23;3.65;;;1.00;;
15006;SDS011;7599;50.748;13.142;2024-01-10T13:41:27;1.50;;;0.85;;
15006;SDS011;7599;50.748;13.142;2024-01-10T13:44:32;3.45;;;1.42;;
15006;SDS011;7599;50.748;13.142;2024-01-10T13:47:43;2.70;;;1.27;;
15006;SDS011;7599;50.748;13.142;2024-01-10T13:50:46;2.83;;;1.17;;
15006;SDS011;7599;50.748;13.142;2024-01-10T13:53:50;1.75;;;1.10;;
15006;SDS011;7599;50.748;13.142;2024-01-10T13:56:54;2.47;;;1.20;;
15006;SDS011;7599;50.748;13.142;2024-01-10T13:59:59;1.40;;;0.90;;
15006;SDS011;7599;50.748;13.142;2024-01-10T14:03:10;1.70;;;1.08;;
15006;SDS011;7599;50.748;13.142;2024-01-10T14:06:20;1.60;;;1.10;;
15006;SDS011;7599;50.748;13.142;2024-01-10T14:09:24;7.32;;;1.20;;
15006;SDS011;7599;50.748;13.142;2024-01-10T14:12:37;12.65;;;1.83;;
15006;SDS011;7599;50.748;13.142;2024-01-10T14:15:42;12.27;;;2.13;;
15006;SDS011;7599;50.748;13.142;2024-01-10T14:18:45;10.07;;;1.45;;
15006;SDS011;7599;50.748;13.142;2024-01-10T14:21:48;8.18;;;1.65;;
15006;SDS011;7599;50.748;13.142;2024-01-10T14:24:50;7.00;;;1.13;;
15006;SDS011;7599;50.748;13.142;2024-01-10T14:27:56;7.93;;;1.20;;
15006;SDS011;7599;50.748;13.142;2024-01-10T14:31:01;7.20;;;1.30;;
15006;SDS011;7599;50.748;13.142;2024-01-10T14:34:19;10.98;;;1.33;;
15006;SDS011;7599;50.748;13.142;2024-01-10T14:37:22;5.43;;;1.38;;
15006;SDS011;7599;50.748;13.142;2024-01-10T14:40:24;6.38;;;1.38;;
15006;SDS011;7599;50.748;13.142;2024-01-10T14:43:27;5.88;;;1.15;;
15006;SDS011;7599;50.748;13.142;2024-01-10T14:46:31;6.93;;;1.17;;
15006;SDS011;7599;50.748;13.142;2024-01-10T14:49:34;6.25;;;1.10;;
15006;SDS011;7599;50.748;13.142;2024-01-10T14:52:36;4.53;;;1.45;;
15006;SDS011;7599;50.748;13.142;2024-01-10T14:55:39;8.05;;;1.33;;
15006;SDS011;7599;50.748;13.142;2024-01-10T14:58:41;5.55;;;1.13;;
15006;SDS011;7599;50.748;13.142;2024-01-10T15:01:45;10.55;;;1.30;;
15006;SDS011;7599;50.748;13.142;2024-01-10T15:04:48;4.88;;;1.25;;
15006;SDS011;7599;50.748;13.142;2024-01-10T15:07:51;7.00;;;1.35;;
15006;SDS011;7599;50.748;13.142;2024-01-10T15:10:54;4.80;;;1.45;;
15006;SDS011;7599;50.748;13.142;2024-01-10T15:13:57;4.25;;;1.10;;
15006;SDS011;7599;50.748;13.142;2024-01-10T15:17:00;6.28;;;1.25;;
15006;SDS011;7599;50.748;13.142;2024-01-10T15:20:05;3.78;;;1.13;;
15006;SDS011;7599;50.748;13.142;2024-01-10T15:23:09;3.00;;;0.88;;
15006;SDS011;7599;50.748;13.142;2024-01-10T15:26:14;5.28;;;1.35;;
15006;SDS011;7599;50.748;13.142;2024-01-10T15:29:17;2.40;;;1.30;;
15006;SDS011;7599;50.748;13.142;2024-01-10T15:32:22;7.43;;;1.10;;
15006;SDS011;7599;50.748;13.142;2024-01-10T15:35:25;2.95;;;1.10;;
15006;SDS011;7599;50.748;13.142;2024-01-10T15:38:28;4.78;;;1.20;;
15006;SDS011;7599;50.748;13.142;2024-01-10T15:41:30;1.98;;;0.93;;
15006;SDS011;7599;50.748;13.142;2024-01-10T15:44:33;2.40;;;1.55;;
15006;SDS011;7599;50.748;13.142;2024-01-10T15:47:38;2.13;;;1.13;;
15006;SDS011;7599;50.748;13.142;2024-01-10T15:50:44;2.55;;;1.10;;
15006;SDS011;7599;50.748;13.142;2024-01-10T15:53:47;1.92;;;1.00;;
15006;SDS011;7599;50.748;13.142;2024-01-10T15:56:51;2.00;;;0.90;;
15006;SDS011;7599;50.748;13.142;2024-01-10T15:59:54;2.22;;;0.63;;
15006;SDS011;7599;50.748;13.142;2024-01-10T16:02:59;2.92;;;1.15;;
15006;SDS011;7599;50.748;13.142;2024-01-10T16:06:04;4.35;;;1.95;;
15006;SDS011;7599;50.748;13.142;2024-01-10T16:09:07;2.65;;;1.48;;
15006;SDS011;7599;50.748;13.142;2024-01-10T16:12:10;2.50;;;1.60;;
15006;SDS011;7599;50.748;13.142;2024-01-10T16:15:14;4.00;;;1.65;;
15006;SDS011;7599;50.748;13.142;2024-01-10T16:18:19;4.45;;;1.67;;
15006;SDS011;7599;50.748;13.142;2024-01-10T16:21:22;3.30;;;1.13;;
15006;SDS011;7599;50.748;13.142;2024-01-10T16:24:25;2.97;;;1.20;;
15006;SDS011;7599;50.748;13.142;2024-01-10T16:27:28;3.22;;;1.40;;
15006;SDS011;7599;50.748;13.142;2024-01-10T16:30:31;2.03;;;1.30;;
15006;SDS011;7599;50.748;13.142;2024-01-10T16:33:35;2.38;;;1.33;;
15006;SDS011;7599;50.748;13.142;2024-01-10T16:36:38;2.38;;;1.40;;
15006;SDS011;7599;50.748;13.142;2024-01-10T16:39:40;2.80;;;1.35;;
15006;SDS011;7599;50.748;13.142;2024-01-10T16:42:43;2.47;;;1.35;;
15006;SDS011;7599;50.748;13.142;2024-01-10T16:45:46;2.30;;;1.02;;
15006;SDS011;7599;50.748;13.142;2024-01-10T16:48:50;2.75;;;1.30;;
15006;SDS011;7599;50.748;13.142;2024-01-10T16:51:53;2.33;;;1.10;;
15006;SDS011;7599;50.748;13.142;2024-01-10T16:54:55;2.58;;;1.05;;
15006;SDS011;7599;50.748;13.142;2024-01-10T16:57:58;2.28;;;1.30;;
15006;SDS011;7599;50.748;13.142;2024-01-10T17:01:01;2.30;;;1.40;;
15006;SDS011;7599;50.748;13.142;2024-01-10T17:04:05;2.40;;;1.40;;
15006;SDS011;7599;50.748;13.142;2024-01-10T17:07:08;1.60;;;0.88;;
15006;SDS011;7599;50.748;13.142;2024-01-10T17:10:11;2.72;;;1.30;;
15006;SDS011;7599;50.748;13.142;2024-01-10T17:13:14;2.42;;;1.23;;
15006;SDS011;7599;50.748;13.142;2024-01-10T17:16:17;2.00;;;0.98;;
15006;SDS011;7599;50.748;13.142;2024-01-10T17:19:20;2.58;;;1.50;;
15006;SDS011;7599;50.748;13.142;2024-01-10T17:22:23;2.83;;;1.00;;
15006;SDS011;7599;50.748;13.142;2024-01-10T17:25:26;1.90;;;1.10;;
15006;SDS011;7599;50.748;13.142;2024-01-10T17:28:28;1.98;;;1.10;;
15006;SDS011;7599;50.748;13.142;2024-01-10T17:31:31;2.50;;;1.10;;
15006;SDS011;7599;50.748;13.142;2024-01-10T17:34:35;2.95;;;1.27;;
15006;SDS011;7599;50.748;13.142;2024-01-10T17:37:38;1.90;;;1.08;;
15006;SDS011;7599;50.748;13.142;2024-01-10T17:40:41;2.58;;;1.20;;
15006;SDS011;7599;50.748;13.142;2024-01-10T17:43:43;2.40;;;1.10;;
15006;SDS011;7599;50.748;13.142;2024-01-10T17:46:46;1.58;;;1.10;;
15006;SDS011;7599;50.748;13.142;2024-01-10T17:49:50;1.65;;;1.20;;
15006;SDS011;7599;50.748;13.142;2024-01-10T17:52:53;2.28;;;1.17;;
15006;SDS011;7599;50.748;13.142;2024-01-10T17:55:55;2.38;;;1.30;;
15006;SDS011;7599;50.748;13.142;2024-01-10T18:02:00;1.83;;;1.10;;
15006;SDS011;7599;50.748;13.142;2024-01-10T18:05:05;2.55;;;1.17;;
15006;SDS011;7599;50.748;13.142;2024-01-10T18:08:08;1.30;;;0.90;;
15006;SDS011;7599;50.748;13.142;2024-01-10T18:11:11;2.30;;;1.20;;
15006;SDS011;7599;50.748;13.142;2024-01-10T18:17:16;2.83;;;1.02;;
15006;SDS011;7599;50.748;13.142;2024-01-10T18:23:23;3.00;;;1.10;;
15006;SDS011;7599;50.748;13.142;2024-01-10T18:26:26;1.90;;;1.30;;
15006;SDS011;7599;50.748;13.142;2024-01-10T18:29:29;2.55;;;1.67;;
15006;SDS011;7599;50.748;13.142;2024-01-10T18:35:35;1.90;;;1.10;;
15006;SDS011;7599;50.748;13.142;2024-01-10T18:38:39;2.58;;;1.30;;
15006;SDS011;7599;50.748;13.142;2024-01-10T18:41:41;2.53;;;1.13;;
15006;SDS011;7599;50.748;13.142;2024-01-10T18:44:45;1.58;;;0.82;;
15006;SDS011;7599;50.748;13.142;2024-01-10T18:47:48;1.95;;;1.10;;
15006;SDS011;7599;50.748;13.142;2024-01-10T18:50:52;1.02;;;0.82;;
15006;SDS011;7599;50.748;13.142;2024-01-10T18:53:55;2.15;;;1.10;;
15006;SDS011;7599;50.748;13.142;2024-01-10T18:56:58;2.20;;;1.00;;
15006;SDS011;7599;50.748;13.142;2024-01-10T19:00:01;1.50;;;0.95;;
15006;SDS011;7599;50.748;13.142;2024-01-10T19:03:05;1.55;;;0.88;;
15006;SDS011;7599;50.748;13.142;2024-01-10T19:09:12;1.60;;;0.90;;
15006;SDS011;7599;50.748;13.142;2024-01-10T19:12:15;2.58;;;1.10;;
15006;SDS011;7599;50.748;13.142;2024-01-10T19:15:18;1.27;;;0.90;;
15006;SDS011;7599;50.748;13.142;2024-01-10T19:18:21;2.45;;;1.05;;
15006;SDS011;7599;50.748;13.142;2024-01-10T19:24:27;1.75;;;0.88;;
15006;SDS011;7599;50.748;13.142;2024-01-10T19:27:30;2.67;;;0.90;;
15006;SDS011;7599;50.748;13.142;2024-01-10T19:33:36;1.65;;;0.90;;
15006;SDS011;7599;50.748;13.142;2024-01-10T19:36:40;1.77;;;0.85;;
15006;SDS011;7599;50.748;13.142;2024-01-10T19:39:42;2.08;;;1.00;;
15006;SDS011;7599;50.748;13.142;2024-01-10T19:42:45;1.65;;;1.00;;
15006;SDS011;7599;50.748;13.142;2024-01-10T19:45:48;1.88;;;0.90;;
15006;SDS011;7599;50.748;13.142;2024-01-10T19:51:54;1.75;;;0.90;;
15006;SDS011;7599;50.748;13.142;2024-01-10T19:54:57;1.30;;;0.93;;
15006;SDS011;7599;50.748;13.142;2024-01-10T20:01:02;0.82;;;0.70;;
15006;SDS011;7599;50.748;13.142;2024-01-10T20:04:06;1.33;;;0.80;;
15006;SDS011;7599;50.748;13.142;2024-01-10T20:07:09;1.65;;;0.82;;
15006;SDS011;7599;50.748;13.142;2024-01-10T20:10:12;1.55;;;1.08;;
15006;SDS011;7599;50.748;13.142;2024-01-10T20:13:14;0.93;;;0.80;;
15006;SDS011;7599;50.748;13.142;2024-01-10T20:16:17;1.17;;;0.80;;
15006;SDS011;7599;50.748;13.142;2024-01-10T20:19:20;1.50;;;0.90;;